Maldives Meteorological Service

METAR

Station
VRMM
METAR VRMM 060900Z 24014KT 9999 FEW017 FEW018CB OVC110 29/25 Q1006 CB NNE TEMPO NOSIG=
VRMH
METAR VRMH 060900Z 26009KT 9999 FEW018 OVC240 29/27 Q1006=
VRMK
METAR VRMK 060900Z 19010KT 9999 FEW018TCU BKN120 29/25 Q1007=
VRMT
METAR VRMT 060900Z 16011KT 9999 FEW018TCU BKN120 31/25 Q1007=
VRMG
METAR VRMG 060900Z 18012KT 9999 SCT017 FEW018CB OVC250 30/25 Q1007 CB W TEMPO 5000 -SHRA=
Last Updated : 2020-08-06 14:00:59

SPECI

Station
VRMM
VRMH
VRMK
VRMT
VRMG
Last Updated : 2020-08-06 14:00:59